Avery Island, LA

18:45 CDT le 02 septembre 2014 (GMT -0500)
Acadiana Regional | Change Station
CLOSE
Current Station
Aéroport
Location: New Iberia,
Altitude: 23 ft
Stations météo à proximité

Alt. 23 ft 30.04 °N, 91.88 °W | Updated 52 minutes ago

Clear
Ciel dégagé
89 ° F
Paraît 99 ° F
N
8
Vent Variable Vent de Sud

Aujourd'hui
Haut(e) -- | Bas -- ° F
--% Risque de précip.
Hier
Haut(e) -- | Bas -- ° F
Precip. -- pouce
6:45 AM 7:28 PM
Premier quartier, 56% visible
Pression 29.99 pouce
Visibilité 10.0 Miles terrestres
Nuages Ciel dégagé
indice de chaleur 99 ° F
Point de rosée 75 ° F
Humidité 63%
Précipitations 0.03 pouce
Profondeur de la couche neigeuse Non disponible.
UV 2 sur 12
Pollen 8.20 sur 12
Qualité de l'air Non disponible.
Flu Activity Non disponible.
METAR KARA 022253Z 19007KT 10SM CLR 32/24 A2999 RMK AO2 SLP154 T03170239

More Conditions Fewer Conditions

Pression 29.99 pouce
Visibilité 10.0 Miles terrestres
Nuages Ciel dégagé
indice de chaleur 99 ° F
Point de rosée 75 ° F
Humidité 63%
Précipitations 0.03 pouce
Profondeur de la couche neigeuse Non disponible.
UV 2 sur 12
Pollen 8.20 sur 12
Qualité de l'air Non disponible.
Flu Activity Non disponible.
METAR KARA 022253Z 19007KT 10SM CLR 32/24 A2999 RMK AO2 SLP154 T03170239

More Conditions Fewer Conditions

10-Day Weather Forecast

Almanac

Astronomie

Sep. 02, 2014 Lever Coucher
Temps réel 06:45 CDT 19:28 CDT
Crépuscule civil 06:20 CDT 19:53 CDT
Crépuscule nautique 05:52 CDT 20:21 CDT
Crépuscule astronomique 05:22 CDT 20:50 CDT
Lune 13:59 CDT 00:00 CDT
Durée de lumière visible 13h 32m
Longueur du jour
12h 43m
Tomorrow will be 1m 45s shorter.
Premier quartier, 56% of the Moon is Illuminated
Aujourd'hui
Premier quartier
Sep 8
Pleine lune
Sep 15
Dernier quartier
Sep 24
Nouveau
Oct 1
Premier quartier

Extrêmes aujourd'hui

State Highs State Lows

Community

WunderPhotos

Upload Photos

1,749,799 Photos téléchargées !

Nearby

Épaisseur de neige

Station Depth Altitude
Pas de nouvelles chutes de neige

Activité sismique

Ville Distance Mag. Time & Date
No recent earthquake activity has been reported nearby.
Minimum magnitude displayed is 2.5.

Températures des eaux côtières

Lieu Température
Fresh Water Canal Locks, LA 86.0 ° F
Amerada Pass, LA 88.0 ° F

Stations météo à proximité